createdAt,value
2022-11-10T00:00:32.612Z,62.96
2022-11-10T00:01:32.902Z,63.06
2022-11-10T00:02:33.182Z,62.99
2022-11-10T00:03:33.484Z,63.28
2022-11-10T00:04:33.799Z,63.70
2022-11-10T00:05:34.062Z,63.79
2022-11-10T00:06:34.419Z,63.67
2022-11-10T00:07:34.650Z,63.29
2022-11-10T00:08:35.001Z,63.29
2022-11-10T00:09:35.304Z,63.30
2022-11-10T00:10:35.576Z,63.69
2022-11-10T00:11:35.885Z,63.29
2022-11-10T00:12:36.176Z,63.29
2022-11-10T00:13:36.487Z,63.29
2022-11-10T00:14:36.812Z,63.29
2022-11-10T00:15:37.086Z,63.68
2022-11-10T00:16:37.371Z,63.68
2022-11-10T00:17:37.665Z,63.68
2022-11-10T00:18:37.975Z,63.29
2022-11-10T00:19:38.307Z,63.69
2022-11-10T00:20:38.564Z,63.29
2022-11-10T00:21:38.844Z,63.29
2022-11-10T00:22:39.136Z,63.29
2022-11-10T00:23:39.440Z,63.34
2022-11-10T00:24:39.747Z,63.74
2022-11-10T00:25:39.985Z,63.34
2022-11-10T00:26:40.276Z,63.34
2022-11-10T00:27:40.576Z,63.82
2022-11-10T00:28:40.866Z,63.82
2022-11-10T00:29:41.171Z,63.82
2022-11-10T00:30:46.578Z,62.89
2022-11-10T00:31:42.655Z,62.89
2022-11-10T00:32:41.976Z,62.89
2022-11-10T00:33:42.285Z,63.09
2022-11-10T00:34:42.598Z,62.90
2022-11-10T00:35:42.865Z,62.70
2022-11-10T00:36:43.155Z,62.50
2022-11-10T00:37:43.433Z,62.50
2022-11-10T00:38:43.736Z,62.50
2022-11-10T00:39:44.038Z,62.70
2022-11-10T00:40:44.306Z,62.50
2022-11-10T00:41:44.585Z,63.87
2022-11-10T00:42:44.877Z,63.77
2022-11-10T00:43:45.157Z,62.60
2022-11-10T00:44:45.488Z,62.89
2022-11-10T00:45:45.757Z,62.89
2022-11-10T00:46:46.040Z,62.89
2022-11-10T00:47:46.336Z,63.09
2022-11-10T00:48:46.626Z,63.09
2022-11-10T00:49:46.935Z,62.72
2022-11-10T00:50:47.197Z,62.72
2022-11-10T00:51:47.489Z,62.72
2022-11-10T00:52:47.774Z,62.72
2022-11-10T00:53:48.075Z,62.89
2022-11-10T00:54:48.388Z,62.92
2022-11-10T00:55:48.675Z,62.82
2022-11-10T00:56:48.989Z,62.93
2022-11-10T00:57:49.298Z,63.67
2022-11-10T00:58:49.600Z,63.67
2022-11-10T00:59:49.929Z,63.67
2022-11-10T01:00:50.259Z,62.50
2022-11-10T01:01:50.523Z,62.52
2022-11-10T01:02:50.842Z,62.55
2022-11-10T01:03:51.146Z,62.55
2022-11-10T01:04:51.437Z,62.60
2022-11-10T01:05:51.744Z,62.51
2022-11-10T01:06:52.099Z,62.51
2022-11-10T01:07:52.340Z,64.06
2022-11-10T01:08:52.630Z,64.06
2022-11-10T01:09:52.940Z,64.17
2022-11-10T01:10:53.176Z,64.16
2022-11-10T01:11:53.470Z,64.06
2022-11-10T01:12:53.780Z,64.06
2022-11-10T01:13:54.059Z,64.07
2022-11-10T01:14:54.356Z,64.27
2022-11-10T01:15:54.666Z,64.26
2022-11-10T01:16:54.957Z,64.27
2022-11-10T01:17:55.280Z,64.27
2022-11-10T01:18:55.516Z,64.07
2022-11-10T01:19:55.818Z,64.09
2022-11-10T01:20:56.097Z,64.28
2022-11-10T01:21:56.396Z,64.28
2022-11-10T01:22:56.717Z,62.50
2022-11-10T01:23:57.001Z,64.26
2022-11-10T01:24:57.328Z,62.50
2022-11-10T01:25:57.580Z,62.71
2022-11-10T01:26:57.870Z,62.63
2022-11-10T01:27:58.167Z,62.54
2022-11-10T01:28:58.448Z,62.54
2022-11-10T01:29:58.745Z,62.60
2022-11-10T01:30:59.063Z,62.60
2022-11-10T01:31:59.348Z,62.60
2022-11-10T01:32:59.671Z,62.51
2022-11-10T01:33:59.947Z,62.80
2022-11-10T01:35:00.255Z,62.52
2022-11-10T01:36:00.532Z,62.82
2022-11-10T01:37:00.830Z,62.82
2022-11-10T01:38:01.136Z,62.82
2022-11-10T01:39:01.429Z,62.82
2022-11-10T01:40:01.810Z,62.62
2022-11-10T01:41:02.058Z,62.62
2022-11-10T01:42:02.357Z,62.62
2022-11-10T01:43:02.651Z,62.52
2022-11-10T01:44:02.952Z,62.55
2022-11-10T01:45:03.281Z,62.55
2022-11-10T01:46:03.541Z,62.87
2022-11-10T01:47:03.852Z,62.67
2022-11-10T01:48:04.153Z,62.50
2022-11-10T01:49:04.472Z,62.50
2022-11-10T01:50:04.811Z,62.67
2022-11-10T01:51:05.168Z,62.67
2022-11-10T01:52:05.314Z,62.67
2022-11-10T01:53:05.621Z,62.67
2022-11-10T01:54:05.933Z,62.67
2022-11-10T01:55:06.262Z,62.79
2022-11-10T01:56:06.531Z,62.79
2022-11-10T01:57:06.834Z,62.67
2022-11-10T01:58:07.127Z,62.57
2022-11-10T01:59:07.409Z,62.57
2022-11-10T02:00:07.707Z,62.51
2022-11-10T02:01:08.055Z,62.50
2022-11-10T02:02:08.301Z,62.90
2022-11-10T02:03:08.611Z,62.89
2022-11-10T02:04:08.928Z,62.89
2022-11-10T02:05:09.273Z,64.06
2022-11-10T02:06:09.516Z,64.06
2022-11-10T02:07:09.850Z,64.06
2022-11-10T02:08:10.102Z,64.06
2022-11-10T02:09:10.399Z,62.90
2022-11-10T02:10:10.741Z,64.06
2022-11-10T02:11:10.988Z,62.90
2022-11-10T02:12:11.277Z,62.90
2022-11-10T02:13:11.559Z,62.90
2022-11-10T02:14:11.861Z,62.90
2022-11-10T02:15:12.193Z,62.90
2022-11-10T02:16:12.443Z,64.06
2022-11-10T02:17:12.729Z,62.90
2022-11-10T02:18:13.042Z,64.06
2022-11-10T02:19:13.339Z,64.06
2022-11-10T02:20:13.663Z,64.46
2022-11-10T02:21:13.931Z,64.45
2022-11-10T02:22:14.244Z,64.45
2022-11-10T02:23:14.529Z,64.06
2022-11-10T02:24:14.831Z,64.55
2022-11-10T02:25:15.135Z,64.55
2022-11-10T02:26:15.390Z,64.45
2022-11-10T02:27:15.712Z,64.49
2022-11-10T02:28:15.955Z,64.59
2022-11-10T02:29:16.252Z,64.55
2022-11-10T02:30:16.568Z,64.49
2022-11-10T02:31:16.827Z,64.55
2022-11-10T02:32:17.138Z,64.06
2022-11-10T02:33:17.428Z,64.55
2022-11-10T02:34:17.741Z,64.59
2022-11-10T02:35:18.048Z,64.55
2022-11-10T02:36:18.322Z,64.17
2022-11-10T02:37:18.647Z,64.17
2022-11-10T02:38:18.932Z,64.06
2022-11-10T02:39:19.234Z,64.55
2022-11-10T02:40:19.561Z,64.55
2022-11-10T02:41:19.829Z,64.06
2022-11-10T02:42:20.142Z,64.17
2022-11-10T02:43:20.814Z,64.48
2022-11-10T02:44:20.748Z,64.17
2022-11-10T02:45:21.038Z,64.17
2022-11-10T02:46:21.351Z,64.12
2022-11-10T02:47:21.652Z,64.23
2022-11-10T02:48:21.949Z,64.50
2022-11-10T02:49:22.240Z,64.23
2022-11-10T02:50:22.561Z,64.23
2022-11-10T02:51:22.867Z,64.12
2022-11-10T02:52:23.171Z,64.61
2022-11-10T02:53:23.749Z,64.61
2022-11-10T02:54:23.806Z,64.61
2022-11-10T02:55:24.119Z,64.61
2022-11-10T02:56:24.358Z,64.51
2022-11-10T02:57:24.659Z,64.62
2022-11-10T02:58:24.991Z,64.62
2022-11-10T02:59:25.256Z,64.62
2022-11-10T03:00:25.580Z,64.62
2022-11-10T03:01:26.056Z,64.62
2022-11-10T03:02:31.071Z,64.62
2022-11-10T03:03:27.344Z,64.62
2022-11-10T03:04:26.670Z,64.62
2022-11-10T03:05:27.002Z,64.62
2022-11-10T03:06:27.273Z,64.72
2022-11-10T03:07:27.580Z,64.72
2022-11-10T03:08:27.893Z,64.72
2022-11-10T03:09:28.207Z,64.72
2022-11-10T03:10:28.512Z,64.75
2022-11-10T03:11:32.219Z,64.75
2022-11-10T03:12:29.124Z,64.75
2022-11-10T03:13:40.293Z,64.75
2022-11-10T03:14:30.669Z,64.75
2022-11-10T03:15:30.022Z,64.75
2022-11-10T03:16:30.294Z,64.75
2022-11-10T03:17:30.613Z,64.75
2022-11-10T03:18:30.924Z,64.75
2022-11-10T03:19:31.243Z,64.75
2022-11-10T03:20:31.555Z,64.75
2022-11-10T03:21:31.834Z,64.75
2022-11-10T03:22:32.145Z,64.75
2022-11-10T03:23:32.460Z,64.75
2022-11-10T03:24:32.752Z,64.75
2022-11-10T03:25:33.074Z,64.75
2022-11-10T03:26:33.331Z,64.75
2022-11-10T03:27:33.630Z,64.75
2022-11-10T03:28:33.946Z,64.86
2022-11-10T03:29:34.240Z,64.75
2022-11-10T03:30:34.552Z,64.75
2022-11-10T03:31:34.963Z,64.75
2022-11-10T03:32:35.111Z,64.75
2022-11-10T03:33:35.425Z,64.75
2022-11-10T03:34:35.723Z,64.75
2022-11-10T03:35:36.041Z,64.75
2022-11-10T03:36:36.281Z,64.75
2022-11-10T03:37:36.580Z,64.75
2022-11-10T03:38:36.891Z,64.75
2022-11-10T03:39:37.180Z,64.75
2022-11-10T03:40:50.826Z,64.86
2022-11-10T03:41:38.739Z,64.75
2022-11-10T03:42:38.074Z,64.75
2022-11-10T03:43:38.372Z,64.75
2022-11-10T03:44:38.674Z,64.86
2022-11-10T03:45:39.003Z,64.75
2022-11-10T03:46:42.840Z,64.86
2022-11-10T03:47:39.514Z,64.86
2022-11-10T03:48:39.811Z,64.86
2022-11-10T03:49:40.125Z,64.86
2022-11-10T03:50:40.446Z,64.86
2022-11-10T03:51:40.711Z,64.86
2022-11-10T03:52:41.024Z,64.86
2022-11-10T03:53:41.410Z,64.86
2022-11-10T03:54:41.600Z,64.86
2022-11-10T03:55:41.881Z,64.86
2022-11-10T03:56:42.152Z,64.86
2022-11-10T03:57:42.464Z,64.86
2022-11-10T03:58:42.765Z,64.86
2022-11-10T03:59:43.084Z,64.86
2022-11-10T04:00:43.404Z,64.86
2022-11-10T04:01:43.720Z,64.86
2022-11-10T04:02:43.985Z,64.86
2022-11-10T04:03:48.766Z,64.86
2022-11-10T04:04:45.591Z,64.86
2022-11-10T04:05:44.944Z,64.86
2022-11-10T04:06:45.218Z,64.86
2022-11-10T04:07:45.492Z,64.86
2022-11-10T04:08:45.791Z,64.86
2022-11-10T04:09:46.107Z,64.86
2022-11-10T04:10:46.435Z,64.86
2022-11-10T04:11:46.708Z,64.86
2022-11-10T04:12:47.007Z,64.86
2022-11-10T04:13:47.300Z,64.86
2022-11-10T04:14:47.592Z,64.86
2022-11-10T04:15:47.923Z,64.86
2022-11-10T04:16:48.203Z,64.86
2022-11-10T04:17:48.493Z,64.86
2022-11-10T04:18:48.792Z,64.86
2022-11-10T04:19:49.090Z,64.86
2022-11-10T04:20:49.402Z,64.86
2022-11-10T04:21:49.705Z,64.86
2022-11-10T04:22:50.015Z,64.86
2022-11-10T04:23:50.324Z,64.86
2022-11-10T04:24:50.625Z,64.86
2022-11-10T04:25:52.865Z,64.86
2022-11-10T04:26:51.192Z,64.86
2022-11-10T04:27:51.507Z,64.86
2022-11-10T04:28:51.804Z,64.86
2022-11-10T04:29:52.140Z,64.86
2022-11-10T04:30:52.415Z,64.86
2022-11-10T04:31:52.675Z,64.86
2022-11-10T04:32:53.831Z,64.86
2022-11-10T04:33:53.288Z,64.96
2022-11-10T04:34:53.597Z,64.96
2022-11-10T04:35:53.917Z,64.96
2022-11-10T04:36:54.196Z,64.96
2022-11-10T04:37:54.497Z,64.96
2022-11-10T04:38:54.792Z,64.96
2022-11-10T04:39:55.102Z,64.96
2022-11-10T04:40:55.411Z,64.96
2022-11-10T04:42:01.277Z,64.96
2022-11-10T04:42:57.061Z,64.96
2022-11-10T04:43:56.202Z,64.96
2022-11-10T04:44:56.506Z,64.96
2022-11-10T04:45:56.837Z,64.96
2022-11-10T04:46:57.096Z,64.96
2022-11-10T04:47:57.404Z,64.96
2022-11-10T04:48:57.703Z,64.96
2022-11-10T04:49:58.007Z,64.96
2022-11-10T04:50:58.327Z,99.99
2022-11-10T04:52:05.675Z,99.99
2022-11-10T04:52:58.825Z,99.99
2022-11-10T04:54:00.842Z,99.99
2022-11-10T04:55:01.114Z,99.99
2022-11-10T04:55:59.725Z,99.99
2022-11-10T04:56:59.997Z,99.99
2022-11-10T04:58:00.297Z,99.99
2022-11-10T04:59:00.615Z,99.99
2022-11-10T05:00:00.922Z,99.99
2022-11-10T05:01:01.275Z,99.99
2022-11-10T05:02:01.416Z,99.99
2022-11-10T05:03:01.725Z,99.99
2022-11-10T05:04:02.016Z,99.99
2022-11-10T05:05:02.330Z,99.99
2022-11-10T05:06:02.656Z,99.99
2022-11-10T05:07:03.022Z,99.99
2022-11-10T05:08:03.297Z,99.99
2022-11-10T05:09:03.620Z,99.99
2022-11-10T05:10:03.884Z,99.99
2022-11-10T05:11:04.220Z,99.99
2022-11-10T05:12:04.465Z,99.99
2022-11-10T05:13:04.775Z,99.99
2022-11-10T05:14:05.075Z,99.99
2022-11-10T05:15:05.410Z,99.99
2022-11-10T05:16:05.717Z,99.99
2022-11-10T05:17:06.003Z,99.99
2022-11-10T05:18:06.310Z,99.99
2022-11-10T05:19:06.607Z,99.99
2022-11-10T05:20:06.906Z,99.99
2022-11-10T05:21:07.247Z,99.99
2022-11-10T05:22:07.516Z,99.99
2022-11-10T05:23:07.860Z,99.99
2022-11-10T05:24:08.116Z,99.99
2022-11-10T05:25:08.429Z,99.99
2022-11-10T05:26:08.746Z,99.99
2022-11-10T05:27:09.046Z,99.99
2022-11-10T05:28:09.350Z,99.99
2022-11-10T05:29:09.651Z,99.99
2022-11-10T05:30:09.980Z,99.99
2022-11-10T05:31:10.259Z,99.99
2022-11-10T05:32:10.506Z,99.99
2022-11-10T05:33:10.816Z,99.99
2022-11-10T05:34:11.130Z,99.99
2022-11-10T05:35:11.440Z,99.99
2022-11-10T05:36:11.767Z,99.99
2022-11-10T05:37:12.017Z,99.99
2022-11-10T05:38:12.330Z,99.99
2022-11-10T05:39:12.628Z,99.99
2022-11-10T05:40:12.938Z,99.99
2022-11-10T05:41:13.269Z,99.99
2022-11-10T05:42:13.559Z,99.99
2022-11-10T05:43:13.888Z,99.99
2022-11-10T05:44:14.229Z,99.99
2022-11-10T05:45:14.580Z,99.99
2022-11-10T05:46:14.876Z,99.99
2022-11-10T05:47:15.211Z,99.99
2022-11-10T05:48:15.540Z,99.99
2022-11-10T05:49:15.899Z,99.99
2022-11-10T05:50:16.179Z,99.99
2022-11-10T05:51:16.561Z,99.99
2022-11-10T05:52:16.837Z,99.99
2022-11-10T05:53:17.148Z,99.99
2022-11-10T05:54:17.518Z,99.99
2022-11-10T05:55:17.786Z,99.99
2022-11-10T05:56:18.141Z,99.99
2022-11-10T05:57:18.502Z,99.99
2022-11-10T05:58:18.772Z,99.99
2022-11-10T05:59:19.109Z,99.99
2022-11-10T06:00:19.376Z,99.99
2022-11-10T06:01:19.724Z,99.99
2022-11-10T06:02:20.022Z,99.99
2022-11-10T06:03:20.681Z,99.99
2022-11-10T06:04:20.528Z,99.99
2022-11-10T06:05:20.860Z,99.99
2022-11-10T06:06:21.242Z,99.99
2022-11-10T06:07:21.515Z,99.99
2022-11-10T06:08:21.817Z,99.99
2022-11-10T06:09:22.135Z,99.99
2022-11-10T06:10:22.437Z,99.99
2022-11-10T06:11:22.789Z,99.99
2022-11-10T06:12:23.078Z,99.99
2022-11-10T06:13:23.832Z,99.99
2022-11-10T06:14:23.670Z,99.99
2022-11-10T06:15:23.980Z,99.99
2022-11-10T06:16:24.323Z,99.99
2022-11-10T06:17:24.631Z,99.99
2022-11-10T06:18:24.888Z,99.99
2022-11-10T06:19:25.197Z,99.99
2022-11-10T06:20:25.530Z,99.99
2022-11-10T06:21:25.857Z,99.99
2022-11-10T06:22:26.186Z,99.99
2022-11-10T06:23:26.486Z,99.99
2022-11-10T06:24:26.806Z,99.99
2022-11-10T06:25:27.132Z,99.99
2022-11-10T06:26:27.475Z,99.99
2022-11-10T06:27:27.700Z,99.99
2022-11-10T06:28:28.037Z,99.99
2022-11-10T06:29:28.311Z,99.99
2022-11-10T06:30:28.631Z,99.99
2022-11-10T06:31:29.307Z,99.99
2022-11-10T06:32:29.263Z,99.99
2022-11-10T06:33:29.589Z,99.99
2022-11-10T06:34:29.907Z,99.99
2022-11-10T06:35:30.234Z,99.99
2022-11-10T06:36:30.798Z,99.99
2022-11-10T06:37:30.820Z,99.99
2022-11-10T06:38:31.126Z,99.99
2022-11-10T06:39:31.594Z,99.99
2022-11-10T06:40:31.810Z,99.99
2022-11-10T06:41:32.011Z,99.99
2022-11-10T06:42:32.309Z,99.99
2022-11-10T06:43:32.636Z,99.99
2022-11-10T06:44:32.957Z,99.99
2022-11-10T06:45:33.287Z,99.99
2022-11-10T06:46:37.060Z,99.99
2022-11-10T06:47:34.906Z,99.99
2022-11-10T06:48:34.271Z,99.99
2022-11-10T06:49:34.625Z,99.99
2022-11-10T06:50:34.952Z,99.99
2022-11-10T06:51:35.312Z,99.99
2022-11-10T06:52:35.629Z,99.99
2022-11-10T06:53:35.919Z,99.99
2022-11-10T06:54:36.376Z,99.99
2022-11-10T06:55:36.675Z,99.99
2022-11-10T06:56:36.848Z,99.99
2022-11-10T06:57:37.164Z,99.99
2022-11-10T06:58:37.388Z,99.99
2022-11-10T06:59:37.721Z,99.99
2022-11-10T07:00:38.068Z,99.99
2022-11-10T07:01:38.485Z,99.99
2022-11-10T07:02:38.671Z,99.99
2022-11-10T07:03:53.267Z,99.99
2022-11-10T07:04:40.218Z,99.99
2022-11-10T07:05:39.437Z,99.99
2022-11-10T07:06:39.847Z,99.99
2022-11-10T07:07:40.087Z,99.99
2022-11-10T07:08:40.429Z,99.99
2022-11-10T07:09:40.762Z,99.99
2022-11-10T07:10:41.093Z,99.99
2022-11-10T07:11:41.436Z,99.99
2022-11-10T07:12:41.663Z,99.99
2022-11-10T07:13:42.002Z,99.99
2022-11-10T07:14:42.337Z,99.99
2022-11-10T07:15:42.686Z,99.99
2022-11-10T07:16:42.911Z,99.99
2022-11-10T07:17:43.214Z,99.99
2022-11-10T07:18:43.546Z,99.99
2022-11-10T07:19:43.877Z,99.99
2022-11-10T07:20:44.221Z,99.99
2022-11-10T07:21:44.460Z,99.99
2022-11-10T07:22:44.762Z,99.99
2022-11-10T07:23:45.114Z,99.99
2022-11-10T07:24:45.437Z,99.99
2022-11-10T07:25:45.766Z,99.99
2022-11-10T07:26:46.118Z,99.99
2022-11-10T07:27:46.437Z,99.99
2022-11-10T07:28:46.768Z,99.99
2022-11-10T07:29:47.102Z,99.99
2022-11-10T07:30:47.429Z,99.99
2022-11-10T07:31:47.778Z,99.99
2022-11-10T07:32:48.010Z,99.99
2022-11-10T07:33:51.907Z,99.99
2022-11-10T07:34:49.510Z,99.99
2022-11-10T07:35:48.760Z,99.99
2022-11-10T07:36:49.006Z,99.99
2022-11-10T07:37:49.312Z,64.25
2022-11-10T07:38:49.551Z,64.15
2022-11-10T07:39:49.778Z,64.15
2022-11-10T07:40:49.999Z,64.15
2022-11-10T07:41:52.645Z,63.81
2022-11-10T07:42:50.700Z,63.58
2022-11-10T07:43:50.998Z,63.38
2022-11-10T07:44:51.243Z,63.09
2022-11-10T07:45:51.468Z,62.94
2022-11-10T07:46:51.736Z,62.70
2022-11-10T07:47:52.039Z,62.62
2022-11-10T07:48:52.282Z,63.78
2022-11-10T07:49:52.516Z,63.75
2022-11-10T07:50:52.742Z,63.34
2022-11-10T07:51:52.988Z,63.34
2022-11-10T07:52:53.222Z,63.29
2022-11-10T07:53:53.452Z,63.31
2022-11-10T07:54:53.685Z,62.70
2022-11-10T07:55:53.911Z,62.92
2022-11-10T07:56:54.278Z,62.50
2022-11-10T07:57:54.595Z,62.50
2022-11-10T07:58:54.821Z,62.51
2022-11-10T07:59:57.944Z,62.51
2022-11-10T08:00:55.379Z,62.61
2022-11-10T08:01:55.658Z,62.60
2022-11-10T08:02:55.830Z,62.50
2022-11-10T08:03:56.071Z,63.16
2022-11-10T08:04:56.320Z,63.13
2022-11-10T08:05:56.631Z,62.50
2022-11-10T08:06:56.955Z,62.70
2022-11-10T08:07:57.226Z,63.13
2022-11-10T08:08:57.509Z,63.13
2022-11-10T08:09:57.873Z,62.70
2022-11-10T08:10:58.100Z,63.13
2022-11-10T08:11:58.341Z,62.50
2022-11-10T08:12:58.650Z,62.60
2022-11-10T08:13:58.869Z,63.10
2022-11-10T08:14:59.229Z,62.71
2022-11-10T08:15:59.463Z,62.70
2022-11-10T08:16:59.711Z,62.52
2022-11-10T08:18:00.024Z,63.29
2022-11-10T08:19:00.385Z,63.29
2022-11-10T08:20:00.607Z,62.50
2022-11-10T08:21:00.830Z,62.51
2022-11-10T08:22:01.093Z,62.95
2022-11-10T08:23:01.397Z,62.56
2022-11-10T08:24:01.630Z,62.56
2022-11-10T08:25:01.850Z,62.56
2022-11-10T08:26:02.082Z,62.56
2022-11-10T08:27:02.351Z,62.56
2022-11-10T08:28:02.560Z,62.57
2022-11-10T08:29:02.791Z,62.70
2022-11-10T08:30:03.021Z,62.70
2022-11-10T08:31:05.661Z,62.70
2022-11-10T08:32:03.532Z,62.50
2022-11-10T08:33:03.855Z,62.50
2022-11-10T08:34:04.087Z,62.50
2022-11-10T08:35:04.312Z,62.77
2022-11-10T08:36:04.540Z,62.77
2022-11-10T08:37:04.800Z,63.35
2022-11-10T08:38:09.032Z,63.55
2022-11-10T08:39:05.452Z,63.31
2022-11-10T08:40:05.704Z,62.72
2022-11-10T08:41:06.010Z,62.72
2022-11-10T08:42:06.305Z,63.40
2022-11-10T08:43:06.504Z,63.31
2022-11-10T08:44:10.699Z,62.84
2022-11-10T08:45:07.075Z,62.74
2022-11-10T08:46:07.291Z,63.58
2022-11-10T08:47:07.564Z,63.42
2022-11-10T08:48:07.778Z,63.61
2022-11-10T08:49:07.996Z,63.52
2022-11-10T08:50:08.243Z,63.29
2022-11-10T08:51:08.479Z,62.51
2022-11-10T08:52:08.735Z,62.51
2022-11-10T08:53:09.053Z,63.31
2022-11-10T08:54:09.286Z,62.82
2022-11-10T08:55:09.525Z,63.26
2022-11-10T08:56:09.773Z,63.09
2022-11-10T08:57:10.013Z,62.52
2022-11-10T08:58:10.257Z,50.39
2022-11-10T08:59:10.561Z,50.25
2022-11-10T09:00:10.815Z,50.34
2022-11-10T09:01:11.055Z,62.89
2022-11-10T09:02:11.323Z,62.95
2022-11-10T09:03:11.622Z,62.52
2022-11-10T09:04:11.908Z,62.90
2022-11-10T09:05:12.111Z,62.81
2022-11-10T09:06:12.335Z,62.50
2022-11-10T09:07:12.652Z,50.79
2022-11-10T09:08:12.835Z,50.00
2022-11-10T09:09:13.077Z,50.00
2022-11-10T09:10:13.315Z,50.78
2022-11-10T09:11:13.535Z,62.55
2022-11-10T09:12:13.805Z,62.51
2022-11-10T09:13:14.113Z,63.33
2022-11-10T09:14:14.355Z,62.71
2022-11-10T09:15:14.598Z,63.00
2022-11-10T09:16:14.827Z,63.00
2022-11-10T09:17:15.084Z,62.61
2022-11-10T09:18:15.413Z,62.60
2022-11-10T09:19:19.870Z,50.01
2022-11-10T09:20:15.959Z,50.10
2022-11-10T09:21:16.286Z,50.20
2022-11-10T09:22:16.609Z,50.00
2022-11-10T09:23:16.926Z,50.20
2022-11-10T09:24:17.168Z,50.23
2022-11-10T09:25:17.417Z,50.23
2022-11-10T09:26:17.738Z,50.31
2022-11-10T09:27:17.984Z,50.33
2022-11-10T09:28:18.310Z,50.10
2022-11-10T09:29:18.548Z,50.20
2022-11-10T09:30:18.787Z,50.01
2022-11-10T09:31:19.028Z,50.44
2022-11-10T09:32:19.375Z,50.01
2022-11-10T09:33:19.987Z,50.39
2022-11-10T09:34:19.891Z,50.39
2022-11-10T09:35:20.113Z,50.10
2022-11-10T09:36:20.358Z,50.29
2022-11-10T09:37:20.607Z,50.00
2022-11-10T09:38:21.374Z,50.21
2022-11-10T09:39:21.200Z,50.01
2022-11-10T09:40:21.496Z,50.82
2022-11-10T09:41:21.701Z,50.10
2022-11-10T09:42:21.957Z,50.02
2022-11-10T09:43:22.678Z,50.81
2022-11-10T09:44:22.550Z,50.21
2022-11-10T09:45:22.756Z,50.98
2022-11-10T09:46:22.995Z,50.85
2022-11-10T09:47:50.391Z,50.00
2022-11-10T09:48:24.858Z,50.85
2022-11-10T09:49:23.835Z,50.85
2022-11-10T09:50:24.055Z,50.85
2022-11-10T09:51:24.305Z,50.98
2022-11-10T09:52:24.546Z,50.20
2022-11-10T09:53:24.829Z,50.00
2022-11-10T09:54:25.031Z,50.29
2022-11-10T09:55:25.278Z,50.10
2022-11-10T09:56:25.593Z,51.07
2022-11-10T09:57:25.816Z,50.10
2022-11-10T09:58:26.078Z,50.10
2022-11-10T09:59:26.410Z,50.01
2022-11-10T10:00:26.618Z,50.10
2022-11-10T10:01:26.883Z,50.20
2022-11-10T10:02:27.098Z,50.29
2022-11-10T10:03:27.349Z,50.20
2022-11-10T10:04:27.682Z,50.20
2022-11-10T10:05:27.918Z,50.85
2022-11-10T10:06:43.755Z,51.07
2022-11-10T10:07:29.474Z,50.05
2022-11-10T10:08:28.748Z,51.03
2022-11-10T10:09:29.069Z,50.10
2022-11-10T10:10:29.302Z,50.93
2022-11-10T10:11:29.550Z,50.98
2022-11-10T10:12:29.788Z,50.29
2022-11-10T10:13:30.032Z,50.20
2022-11-10T10:14:30.257Z,51.03
2022-11-10T10:15:30.499Z,50.82
2022-11-10T10:16:30.731Z,51.02
2022-11-10T10:17:30.990Z,51.02
2022-11-10T10:18:31.330Z,50.20
2022-11-10T10:19:31.544Z,50.82
2022-11-10T10:20:31.760Z,50.02
2022-11-10T10:21:32.000Z,51.03
2022-11-10T10:22:32.228Z,50.93
2022-11-10T10:24:02.270Z,50.79
2022-11-10T10:24:33.772Z,50.98
2022-11-10T10:25:33.018Z,50.99
2022-11-10T10:26:33.262Z,50.78
2022-11-10T10:27:33.512Z,50.79
2022-11-10T10:28:33.854Z,50.20
2022-11-10T10:29:37.475Z,50.80
2022-11-10T10:30:34.495Z,50.21
2022-11-10T10:31:34.729Z,50.01
2022-11-10T10:32:34.969Z,50.78
2022-11-10T10:33:35.231Z,50.88
2022-11-10T10:34:35.536Z,50.89
2022-11-10T10:35:41.505Z,50.00
2022-11-10T10:36:37.061Z,50.11
2022-11-10T10:37:36.310Z,50.89
2022-11-10T10:38:36.568Z,50.89
2022-11-10T10:39:36.872Z,50.99
2022-11-10T10:40:37.112Z,50.99
2022-11-10T10:41:37.339Z,50.11
2022-11-10T10:42:37.576Z,50.83
2022-11-10T10:43:37.832Z,50.81
2022-11-10T10:44:38.159Z,50.01
2022-11-10T10:45:38.437Z,50.20
2022-11-10T10:46:38.633Z,50.27
2022-11-10T10:47:38.884Z,50.46
2022-11-10T10:48:39.234Z,50.85
2022-11-10T10:49:39.433Z,50.01
2022-11-10T10:50:39.691Z,50.02
2022-11-10T10:51:39.991Z,50.01
2022-11-10T10:52:47.400Z,50.68
2022-11-10T10:53:42.381Z,50.10
2022-11-10T10:54:40.881Z,50.85
2022-11-10T10:55:41.212Z,50.11
2022-11-10T10:56:41.451Z,50.85
2022-11-10T10:57:41.703Z,51.06
2022-11-10T10:58:42.062Z,50.21
2022-11-10T10:59:42.362Z,50.88
2022-11-10T11:00:42.599Z,50.96
2022-11-10T11:01:43.003Z,50.00
2022-11-10T11:02:43.281Z,50.03
2022-11-10T11:03:43.532Z,50.05
2022-11-10T11:04:43.852Z,50.76
2022-11-10T11:05:44.082Z,50.42
2022-11-10T11:06:44.464Z,50.69
2022-11-10T11:07:44.755Z,50.64
2022-11-10T11:08:45.008Z,50.63
2022-11-10T11:09:45.323Z,50.42
2022-11-10T11:10:45.556Z,50.03
2022-11-10T11:11:45.763Z,50.13
2022-11-10T11:12:46.104Z,50.32
2022-11-10T11:13:46.377Z,50.10
2022-11-10T11:14:46.585Z,50.42
2022-11-10T11:15:46.913Z,50.20
2022-11-10T11:16:47.165Z,50.59
2022-11-10T11:17:47.418Z,50.01
2022-11-10T11:18:47.724Z,50.21
2022-11-10T11:19:47.956Z,50.04
2022-11-10T11:20:48.294Z,50.04
2022-11-10T11:21:48.525Z,50.23
2022-11-10T11:22:48.753Z,50.59
2022-11-10T11:23:49.127Z,50.20
2022-11-10T11:24:49.437Z,50.03
2022-11-10T11:25:49.666Z,50.63
2022-11-10T11:26:50.022Z,50.20
2022-11-10T11:27:50.303Z,50.60
2022-11-10T11:28:50.677Z,50.20
2022-11-10T11:29:50.974Z,50.00
2022-11-10T11:30:51.348Z,50.22
2022-11-10T11:31:51.653Z,50.02
2022-11-10T11:32:51.993Z,50.04
2022-11-10T11:33:52.276Z,50.52
2022-11-10T11:34:52.453Z,50.40
2022-11-10T11:35:52.785Z,50.10
2022-11-10T11:36:53.138Z,50.20
2022-11-10T11:37:53.488Z,50.04
2022-11-10T11:38:53.793Z,50.60
2022-11-10T11:39:54.017Z,50.00
2022-11-10T11:40:54.369Z,50.40
2022-11-10T11:41:54.596Z,50.02
2022-11-10T11:42:54.825Z,50.03
2022-11-10T11:43:55.197Z,50.43
2022-11-10T11:44:55.394Z,50.15
2022-11-10T11:45:55.723Z,50.41
2022-11-10T11:46:56.090Z,50.40
2022-11-10T11:47:56.309Z,50.62
2022-11-10T11:48:56.707Z,50.51
2022-11-10T11:49:56.897Z,50.40
2022-11-10T11:50:57.127Z,50.40
2022-11-10T11:51:57.366Z,50.02
2022-11-10T11:52:57.682Z,50.02
2022-11-10T11:53:58.066Z,50.43
2022-11-10T11:54:58.237Z,50.40
2022-11-10T11:55:58.465Z,50.01
2022-11-10T11:56:58.804Z,50.02
2022-11-10T11:57:59.037Z,50.04
2022-11-10T11:58:59.317Z,50.00
2022-11-10T11:59:59.616Z,50.42
2022-11-10T12:00:59.969Z,50.42
2022-11-10T12:02:00.223Z,50.40
2022-11-10T12:03:00.551Z,50.39
2022-11-10T12:04:00.766Z,50.00
2022-11-10T12:05:01.047Z,50.40
2022-11-10T12:06:01.396Z,50.00
2022-11-10T12:07:01.729Z,50.39
2022-11-10T12:08:02.060Z,50.00
2022-11-10T12:09:02.285Z,50.10
2022-11-10T12:10:02.633Z,50.40
2022-11-10T12:11:02.859Z,50.40
2022-11-10T12:12:03.197Z,50.30
2022-11-10T12:13:03.557Z,50.01
2022-11-10T12:14:03.809Z,50.10
2022-11-10T12:15:04.112Z,50.39
2022-11-10T12:16:04.349Z,50.30
2022-11-10T12:17:20.582Z,50.00
2022-11-10T12:18:05.011Z,50.20
2022-11-10T12:19:07.892Z,50.30
2022-11-10T12:20:05.512Z,50.39
2022-11-10T12:21:05.847Z,50.11
2022-11-10T12:22:06.176Z,50.39
2022-11-10T12:23:06.424Z,50.49
2022-11-10T12:24:10.175Z,50.00
2022-11-10T12:25:06.943Z,50.01
2022-11-10T12:26:07.196Z,62.89
2022-11-10T12:27:07.413Z,62.99
2022-11-10T12:28:07.676Z,62.89
2022-11-10T12:29:08.013Z,50.00
2022-11-10T12:30:15.234Z,50.39
2022-11-10T12:31:08.496Z,50.30
2022-11-10T12:32:08.742Z,50.01
2022-11-10T12:33:09.004Z,50.40
2022-11-10T12:34:09.259Z,50.01
2022-11-10T12:35:09.498Z,50.10
2022-11-10T12:36:09.751Z,50.60
2022-11-10T12:37:10.099Z,50.40
2022-11-10T12:38:10.341Z,50.00
2022-11-10T12:39:10.618Z,50.10
2022-11-10T12:40:10.896Z,50.40
2022-11-10T12:41:11.127Z,50.40
2022-11-10T12:42:11.383Z,50.00
2022-11-10T12:43:11.621Z,50.10
2022-11-10T12:44:11.888Z,50.29
2022-11-10T12:45:12.142Z,50.10
2022-11-10T12:46:12.401Z,50.30
2022-11-10T12:47:12.630Z,50.20
2022-11-10T12:48:12.974Z,50.00
2022-11-10T12:49:13.217Z,50.00
2022-11-10T12:50:13.558Z,50.20
2022-11-10T12:51:13.804Z,50.00
2022-11-10T12:52:14.034Z,62.61
2022-11-10T12:53:14.239Z,50.12
2022-11-10T12:54:16.879Z,50.00
2022-11-10T12:55:14.839Z,50.00
2022-11-10T12:56:15.169Z,50.02